createdAt,value
2023-05-22T00:00:31.129Z,100300.00
2023-05-22T00:02:58.544Z,100301.00
2023-05-22T00:05:26.695Z,100303.00
2023-05-22T00:07:53.992Z,100298.00
2023-05-22T00:10:21.416Z,100296.00
2023-05-22T00:12:48.935Z,100293.00
2023-05-22T00:15:16.427Z,100288.00
2023-05-22T00:17:43.763Z,100284.00
2023-05-22T00:20:11.747Z,100289.00
2023-05-22T00:22:40.211Z,100292.00
2023-05-22T00:25:09.039Z,100286.00
2023-05-22T00:27:36.406Z,100283.00
2023-05-22T00:30:04.242Z,100282.00
2023-05-22T00:32:31.577Z,100282.00
2023-05-22T00:34:58.901Z,100277.00
2023-05-22T00:37:26.649Z,100270.00
2023-05-22T00:39:55.098Z,100272.00
2023-05-22T00:42:23.597Z,100273.00
2023-05-22T00:44:51.543Z,100269.00
2023-05-22T00:47:18.902Z,100272.00
2023-05-22T00:49:46.648Z,100268.00
2023-05-22T00:52:17.036Z,100279.00
2023-05-22T00:54:45.223Z,100279.00
2023-05-22T00:57:13.944Z,100268.00
2023-05-22T00:59:41.298Z,100279.00
2023-05-22T01:02:08.933Z,100275.00
2023-05-22T01:04:36.715Z,100272.00
2023-05-22T01:07:05.411Z,100278.00
2023-05-22T01:09:32.807Z,100266.00
2023-05-22T01:12:11.045Z,100273.00
2023-05-22T01:14:48.728Z,100275.00
2023-05-22T01:17:24.023Z,100273.00
2023-05-22T01:20:01.582Z,100270.00
2023-05-22T01:22:50.050Z,100280.00
2023-05-22T01:25:32.268Z,100280.00
2023-05-22T01:28:29.820Z,100277.00
2023-05-22T01:31:02.204Z,100279.00
2023-05-22T01:33:35.526Z,100280.00
2023-05-22T01:36:05.561Z,100274.00
2023-05-22T01:38:34.170Z,100279.00
2023-05-22T01:41:01.882Z,100283.00
2023-05-22T01:43:29.209Z,100275.00
2023-05-22T01:45:56.536Z,100280.00
2023-05-22T01:48:24.630Z,100278.00
2023-05-22T01:50:54.159Z,100275.00
2023-05-22T01:53:29.878Z,100280.00
2023-05-22T01:56:04.595Z,100279.00
2023-05-22T01:58:39.245Z,100268.00
2023-05-22T02:01:10.425Z,100273.00
2023-05-22T02:03:41.455Z,100280.00
2023-05-22T02:06:12.969Z,100271.00
2023-05-22T02:08:41.751Z,100268.00
2023-05-22T02:11:12.328Z,100271.00
2023-05-22T02:13:40.819Z,100272.00
2023-05-22T02:16:09.148Z,100277.00
2023-05-22T02:18:37.487Z,100275.00
2023-05-22T02:21:07.837Z,100268.00
2023-05-22T02:23:36.239Z,100268.00
2023-05-22T02:26:04.465Z,100267.00
2023-05-22T02:28:31.873Z,100261.00
2023-05-22T02:30:59.239Z,100259.00
2023-05-22T02:33:29.244Z,100260.00
2023-05-22T02:35:57.207Z,100260.00
2023-05-22T02:38:24.573Z,100254.00
2023-05-22T02:40:51.871Z,100254.00
2023-05-22T02:43:19.204Z,100263.00
2023-05-22T02:45:46.548Z,100259.00
2023-05-22T02:48:13.946Z,100246.00
2023-05-22T02:50:43.548Z,100253.00
2023-05-22T02:53:13.686Z,100252.00
2023-05-22T02:55:41.104Z,100252.00
2023-05-22T02:58:10.681Z,100249.00
2023-05-22T03:00:38.309Z,100248.00
2023-05-22T03:03:06.704Z,100252.00
2023-05-22T03:05:34.458Z,100250.00
2023-05-22T03:08:01.862Z,100252.00
2023-05-22T03:10:30.137Z,100248.00
2023-05-22T03:12:57.439Z,100247.00
2023-05-22T03:15:24.792Z,100240.00
2023-05-22T03:17:52.226Z,100244.00
2023-05-22T03:20:19.830Z,100242.00
2023-05-22T03:22:47.218Z,100237.00
2023-05-22T03:25:15.067Z,100238.00
2023-05-22T03:27:43.086Z,100239.00
2023-05-22T03:30:11.250Z,100239.00
2023-05-22T03:32:38.599Z,100232.00
2023-05-22T03:35:06.974Z,100228.00
2023-05-22T03:37:34.361Z,100235.00
2023-05-22T03:40:01.698Z,100231.00
2023-05-22T03:42:29.012Z,100237.00
2023-05-22T03:44:56.952Z,100227.00
2023-05-22T03:47:24.317Z,100228.00
2023-05-22T03:49:51.692Z,100229.00
2023-05-22T03:52:19.028Z,100231.00
2023-05-22T03:54:46.382Z,100221.00
2023-05-22T03:57:14.346Z,100229.00
2023-05-22T03:59:41.644Z,100229.00
2023-05-22T04:02:12.204Z,100224.00
2023-05-22T04:04:39.615Z,100228.00
2023-05-22T04:07:08.412Z,100230.00
2023-05-22T04:09:36.323Z,100223.00
2023-05-22T04:12:03.908Z,100225.00
2023-05-22T04:14:31.984Z,100229.00
2023-05-22T04:16:59.917Z,100224.00
2023-05-22T04:19:29.332Z,100228.00
2023-05-22T04:21:57.536Z,100237.00
2023-05-22T04:24:24.886Z,100240.00
2023-05-22T04:26:52.364Z,100243.00
2023-05-22T04:29:21.641Z,100244.00
2023-05-22T04:31:49.017Z,100251.00
2023-05-22T04:34:17.683Z,100250.00
2023-05-22T04:36:45.839Z,100247.00
2023-05-22T04:39:13.552Z,100242.00
2023-05-22T04:41:41.219Z,100253.00
2023-05-22T04:44:08.639Z,100254.00
2023-05-22T04:46:36.222Z,100259.00
2023-05-22T04:49:03.970Z,100260.00
2023-05-22T04:51:32.257Z,100256.00
2023-05-22T04:54:00.207Z,100253.00
2023-05-22T04:56:35.995Z,100256.00
2023-05-22T04:59:04.773Z,100254.00
2023-05-22T05:01:33.501Z,100255.00
2023-05-22T05:04:01.775Z,100260.00
2023-05-22T05:06:29.268Z,100256.00
2023-05-22T05:08:56.568Z,100260.00
2023-05-22T05:11:24.551Z,100258.00
2023-05-22T05:13:51.869Z,100256.00
2023-05-22T05:16:19.208Z,100257.00
2023-05-22T05:18:46.613Z,100265.00
2023-05-22T05:21:14.500Z,100257.00
2023-05-22T05:23:42.203Z,100259.00
2023-05-22T05:26:09.620Z,100260.00
2023-05-22T05:28:37.783Z,100263.00
2023-05-22T05:31:05.155Z,100265.00
2023-05-22T05:33:32.470Z,100268.00
2023-05-22T05:35:59.827Z,100263.00
2023-05-22T05:38:27.110Z,100270.00
2023-05-22T05:40:54.391Z,100269.00
2023-05-22T05:43:22.612Z,100270.00
2023-05-22T05:45:50.727Z,100272.00
2023-05-22T05:48:18.099Z,100262.00
2023-05-22T05:50:45.488Z,100275.00
2023-05-22T05:53:12.894Z,100271.00
2023-05-22T05:55:40.211Z,100269.00
2023-05-22T05:58:07.629Z,100270.00
2023-05-22T06:00:35.296Z,100271.00
2023-05-22T06:03:03.307Z,100268.00
2023-05-22T06:05:30.688Z,100272.00
2023-05-22T06:07:58.221Z,100266.00
2023-05-22T06:10:25.716Z,100272.00
2023-05-22T06:12:53.146Z,100278.00
2023-05-22T06:15:20.586Z,100265.00
2023-05-22T06:17:47.968Z,100267.00
2023-05-22T06:20:16.059Z,100271.00
2023-05-22T06:22:43.413Z,100267.00
2023-05-22T06:25:10.900Z,100267.00
2023-05-22T06:27:38.243Z,100267.00
2023-05-22T06:30:06.834Z,100266.00
2023-05-22T06:32:34.427Z,100265.00
2023-05-22T06:35:03.302Z,100265.00
2023-05-22T06:37:32.373Z,100262.00
2023-05-22T06:39:59.929Z,100260.00
2023-05-22T06:42:27.255Z,100259.00
2023-05-22T06:44:54.591Z,100266.00
2023-05-22T06:47:21.994Z,100263.00
2023-05-22T06:49:49.278Z,100261.00
2023-05-22T06:52:16.617Z,100265.00
2023-05-22T06:54:44.654Z,100265.00
2023-05-22T06:57:11.956Z,100266.00
2023-05-22T06:59:39.388Z,100269.00
2023-05-22T07:02:07.495Z,100266.00
2023-05-22T07:04:34.849Z,100272.00
2023-05-22T07:07:02.316Z,100273.00
2023-05-22T07:09:29.723Z,100267.00
2023-05-22T07:11:57.745Z,100268.00
2023-05-22T07:14:25.081Z,100260.00
2023-05-22T07:16:52.574Z,100258.00
2023-05-22T07:19:20.640Z,100254.00
2023-05-22T07:21:48.039Z,100255.00
2023-05-22T07:24:15.793Z,100250.00
2023-05-22T07:26:45.766Z,100255.00
2023-05-22T07:29:14.194Z,100260.00
2023-05-22T07:31:41.652Z,100248.00
2023-05-22T07:34:09.125Z,100254.00
2023-05-22T07:36:36.917Z,100252.00
2023-05-22T07:39:04.841Z,100250.00
2023-05-22T07:41:32.444Z,100249.00
2023-05-22T07:44:00.029Z,100246.00
2023-05-22T07:46:28.065Z,100249.00
2023-05-22T07:48:55.750Z,100245.00
2023-05-22T07:51:23.169Z,100238.00
2023-05-22T07:53:50.548Z,100245.00
2023-05-22T07:56:17.944Z,100235.00
2023-05-22T07:58:47.474Z,100239.00
2023-05-22T08:01:15.175Z,100252.00
2023-05-22T08:03:43.361Z,100234.00
2023-05-22T08:06:11.088Z,100238.00
2023-05-22T08:08:38.483Z,100228.00
2023-05-22T08:11:06.088Z,100235.00
2023-05-22T08:13:33.766Z,100237.00
2023-05-22T08:16:01.488Z,100230.00
2023-05-22T08:18:29.555Z,100231.00
2023-05-22T08:20:59.461Z,100234.00
2023-05-22T08:23:26.778Z,100227.00
2023-05-22T08:25:54.111Z,100226.00
2023-05-22T08:28:21.467Z,100218.00
2023-05-22T08:30:48.782Z,100221.00
2023-05-22T08:33:16.341Z,100220.00
2023-05-22T08:35:43.782Z,100216.00
2023-05-22T08:38:11.778Z,100220.00
2023-05-22T08:40:40.894Z,100218.00
2023-05-22T08:43:09.423Z,100213.00
2023-05-22T08:45:36.992Z,100211.00
2023-05-22T08:48:05.522Z,100214.00
2023-05-22T08:50:34.040Z,100221.00
2023-05-22T08:53:02.932Z,100204.00
2023-05-22T08:55:31.209Z,100204.00
2023-05-22T08:57:59.288Z,100201.00
2023-05-22T09:00:26.663Z,100203.00
2023-05-22T09:02:55.133Z,100202.00
2023-05-22T09:05:25.919Z,100201.00
2023-05-22T09:07:55.289Z,100193.00
2023-05-22T09:10:24.272Z,100206.00
2023-05-22T09:13:03.582Z,100185.00
2023-05-22T09:15:32.049Z,100193.00
2023-05-22T09:17:59.475Z,100190.00
2023-05-22T09:20:27.010Z,100191.00
2023-05-22T09:22:54.374Z,100191.00
2023-05-22T09:25:22.189Z,100187.00
2023-05-22T09:27:49.837Z,100195.00
2023-05-22T09:30:18.611Z,100185.00
2023-05-22T09:32:48.343Z,100188.00
2023-05-22T09:35:16.034Z,100191.00
2023-05-22T09:37:43.417Z,100202.00
2023-05-22T09:40:13.506Z,100193.00
2023-05-22T09:42:44.625Z,100190.00
2023-05-22T09:45:12.474Z,100195.00
2023-05-22T09:47:40.965Z,100202.00
2023-05-22T09:50:10.097Z,100201.00
2023-05-22T09:52:38.437Z,100196.00
2023-05-22T09:55:08.017Z,100198.00
2023-05-22T09:57:42.858Z,100194.00
2023-05-22T10:00:14.284Z,100193.00
2023-05-22T10:02:45.930Z,100193.00
2023-05-22T10:05:20.602Z,100185.00
2023-05-22T10:07:49.674Z,100182.00
2023-05-22T10:10:20.734Z,100187.00
2023-05-22T10:12:53.248Z,100185.00
2023-05-22T10:15:22.218Z,100184.00
2023-05-22T10:17:50.836Z,100183.00
2023-05-22T10:20:18.688Z,100178.00
2023-05-22T10:22:48.199Z,100177.00
2023-05-22T10:25:17.603Z,100170.00
2023-05-22T10:27:45.735Z,100160.00
2023-05-22T10:30:26.755Z,100167.00
2023-05-22T10:33:00.629Z,100172.00
2023-05-22T10:35:35.906Z,100173.00
2023-05-22T10:38:29.622Z,100168.00
2023-05-22T10:40:58.300Z,100171.00
2023-05-22T10:43:29.877Z,100163.00
2023-05-22T10:46:03.666Z,100166.00
2023-05-22T10:48:38.024Z,100159.00
2023-05-22T10:51:06.630Z,100157.00
2023-05-22T10:53:34.617Z,100157.00
2023-05-22T10:56:10.622Z,100161.00
2023-05-22T10:58:38.386Z,100149.00
2023-05-22T11:01:12.748Z,100152.00
2023-05-22T11:03:54.501Z,100155.00
2023-05-22T11:06:32.188Z,100148.00
2023-05-22T11:08:59.990Z,100147.00
2023-05-22T11:11:27.796Z,100149.00
2023-05-22T11:14:02.982Z,100144.00
2023-05-22T11:16:33.049Z,100139.00
2023-05-22T11:19:21.852Z,100129.00
2023-05-22T11:21:51.026Z,100125.00
2023-05-22T11:24:18.620Z,100139.00
2023-05-22T11:27:02.049Z,100128.00
2023-05-22T11:29:30.482Z,100131.00
2023-05-22T11:31:58.142Z,100130.00
2023-05-22T11:34:27.231Z,100121.00
2023-05-22T11:36:58.958Z,100131.00
2023-05-22T11:39:26.344Z,100116.00
2023-05-22T11:41:54.115Z,100123.00
2023-05-22T11:44:21.448Z,100124.00
2023-05-22T11:46:49.051Z,100128.00
2023-05-22T11:49:16.599Z,100119.00
2023-05-22T11:51:44.692Z,100112.00
2023-05-22T11:54:12.033Z,100102.00
2023-05-22T11:56:39.417Z,100111.00
2023-05-22T11:59:06.860Z,100105.00
2023-05-22T12:01:35.551Z,100107.00
2023-05-22T12:04:04.304Z,100113.00
2023-05-22T12:06:32.721Z,100106.00
2023-05-22T12:09:01.098Z,100102.00
2023-05-22T12:11:28.521Z,100095.00
2023-05-22T12:14:01.366Z,100101.00
2023-05-22T12:16:33.674Z,100092.00
2023-05-22T12:19:04.026Z,100091.00
2023-05-22T12:21:32.014Z,100096.00
2023-05-22T12:24:04.044Z,100095.00
2023-05-22T12:26:31.991Z,100087.00
2023-05-22T12:29:00.095Z,100091.00
2023-05-22T12:31:27.569Z,100084.00
2023-05-22T12:33:55.990Z,100087.00
2023-05-22T12:36:33.041Z,100085.00
2023-05-22T12:39:06.438Z,100077.00
2023-05-22T12:41:33.830Z,100074.00
2023-05-22T12:44:01.474Z,100074.00
2023-05-22T12:46:30.173Z,100067.00
2023-05-22T12:48:57.675Z,100067.00
2023-05-22T12:51:28.820Z,100068.00
2023-05-22T12:53:56.545Z,100080.00
2023-05-22T12:56:25.202Z,100074.00
2023-05-22T12:58:52.690Z,100073.00
2023-05-22T13:01:21.082Z,100074.00
2023-05-22T13:03:48.475Z,100065.00
2023-05-22T13:06:15.851Z,100053.00
2023-05-22T13:08:43.250Z,100057.00
2023-05-22T13:11:11.606Z,100065.00
2023-05-22T13:13:39.752Z,100061.00
2023-05-22T13:16:07.086Z,100056.00
2023-05-22T13:18:37.174Z,100052.00
2023-05-22T13:21:04.857Z,100061.00
2023-05-22T13:23:32.167Z,100047.00
2023-05-22T13:26:01.319Z,100053.00
2023-05-22T13:28:28.865Z,100057.00
2023-05-22T13:30:56.823Z,100052.00
2023-05-22T13:33:25.066Z,100047.00
2023-05-22T13:35:52.513Z,100035.00
2023-05-22T13:38:20.183Z,100042.00
2023-05-22T13:40:48.730Z,100034.00
2023-05-22T13:43:16.317Z,100031.00
2023-05-22T13:45:43.654Z,100028.00
2023-05-22T13:48:11.690Z,100033.00
2023-05-22T13:50:39.070Z,100034.00
2023-05-22T13:53:06.421Z,100026.00
2023-05-22T13:55:33.766Z,100026.00
2023-05-22T13:58:01.123Z,100027.00
2023-05-22T14:00:28.455Z,100024.00
2023-05-22T14:02:55.899Z,100021.00
2023-05-22T14:05:24.600Z,100018.00
2023-05-22T14:07:52.112Z,100014.00
2023-05-22T14:10:19.731Z,100020.00
2023-05-22T14:12:47.086Z,100007.00
2023-05-22T14:15:15.376Z,100012.00
2023-05-22T14:17:42.734Z,100003.00
2023-05-22T14:20:10.919Z,100006.00
2023-05-22T14:22:55.385Z,100005.00
2023-05-22T14:25:33.148Z,100005.00
2023-05-22T14:28:00.558Z,100009.00
2023-05-22T14:30:27.942Z,100007.00
2023-05-22T14:32:55.370Z,100000.00
2023-05-22T14:35:22.861Z,99994.00
2023-05-22T14:37:50.859Z,100003.00
2023-05-22T14:40:18.266Z,99996.00
2023-05-22T14:42:45.645Z,99996.00
2023-05-22T14:45:13.203Z,99995.00
2023-05-22T14:47:41.694Z,99990.00
2023-05-22T14:50:19.093Z,99991.00
2023-05-22T14:52:46.913Z,99998.00
2023-05-22T14:55:15.186Z,99989.00
2023-05-22T14:57:42.475Z,99991.00
2023-05-22T15:00:11.512Z,99988.00
2023-05-22T15:02:39.073Z,99983.00
2023-05-22T15:05:07.137Z,99983.00
2023-05-22T15:10:05.870Z,99980.00
2023-05-22T15:12:33.917Z,99974.00
2023-05-22T15:15:01.846Z,99975.00
2023-05-22T15:17:29.196Z,99968.00
2023-05-22T15:19:56.520Z,99973.00
2023-05-22T15:22:23.833Z,99967.00
2023-05-22T15:25:04.279Z,99967.00
2023-05-22T15:27:31.706Z,99969.00
2023-05-22T15:29:59.813Z,99969.00
2023-05-22T15:32:27.165Z,99962.00
2023-05-22T15:34:54.585Z,99974.00
2023-05-22T15:37:23.033Z,99959.00
2023-05-22T15:39:50.576Z,99962.00
2023-05-22T15:42:17.993Z,99968.00
2023-05-22T15:44:45.340Z,99972.00
2023-05-22T15:47:14.130Z,99959.00
2023-05-22T15:49:41.495Z,99955.00
2023-05-22T15:52:08.957Z,99957.00
2023-05-22T15:54:36.304Z,99950.00
2023-05-22T15:57:03.874Z,99947.00
2023-05-22T15:59:31.239Z,99952.00
2023-05-22T16:01:58.581Z,99942.00
2023-05-22T16:04:27.426Z,99942.00
2023-05-22T16:06:54.861Z,99942.00
2023-05-22T16:09:22.251Z,99940.00
2023-05-22T16:11:49.765Z,99940.00
2023-05-22T16:14:17.088Z,99942.00
2023-05-22T16:16:44.540Z,99932.00
2023-05-22T16:19:12.247Z,99939.00
2023-05-22T16:21:40.716Z,99945.00
2023-05-22T16:24:10.158Z,99934.00
2023-05-22T16:26:38.467Z,99938.00
2023-05-22T16:29:07.840Z,99930.00
2023-05-22T16:31:35.453Z,99938.00
2023-05-22T16:34:03.081Z,99941.00
2023-05-22T16:36:32.006Z,99934.00
2023-05-22T16:39:00.312Z,99935.00
2023-05-22T16:41:27.843Z,99933.00
2023-05-22T16:43:55.363Z,99938.00
2023-05-22T16:46:22.999Z,99932.00
2023-05-22T16:48:50.485Z,99937.00
2023-05-22T16:51:18.013Z,99937.00
2023-05-22T16:53:45.919Z,99929.00
2023-05-22T16:56:16.187Z,99929.00
2023-05-22T16:58:43.644Z,99931.00
2023-05-22T17:01:11.292Z,99927.00
2023-05-22T17:03:38.924Z,99919.00
2023-05-22T17:06:08.129Z,99919.00
2023-05-22T17:08:35.608Z,99924.00
2023-05-22T17:11:03.018Z,99927.00
2023-05-22T17:13:31.006Z,99918.00
2023-05-22T17:15:58.444Z,99914.00
2023-05-22T17:18:25.882Z,99911.00
2023-05-22T17:20:55.058Z,99910.00
2023-05-22T17:23:22.557Z,99908.00
2023-05-22T17:25:50.056Z,99910.00
2023-05-22T17:28:17.610Z,99911.00
2023-05-22T17:30:46.454Z,99913.00
2023-05-22T17:33:13.858Z,99924.00
2023-05-22T17:35:41.355Z,99913.00
2023-05-22T17:38:08.754Z,99915.00
2023-05-22T17:40:44.622Z,99921.00
2023-05-22T17:43:13.416Z,99913.00
2023-05-22T17:45:41.033Z,99918.00
2023-05-22T17:48:09.169Z,99926.00
2023-05-22T17:50:36.588Z,99912.00
2023-05-22T17:53:03.953Z,99920.00
2023-05-22T17:55:31.300Z,99918.00
2023-05-22T17:57:59.184Z,99925.00
2023-05-22T18:00:26.767Z,99925.00
2023-05-22T18:02:54.256Z,99924.00
2023-05-22T18:05:22.520Z,99931.00
2023-05-22T18:07:49.853Z,99931.00
2023-05-22T18:10:17.264Z,99932.00
2023-05-22T18:12:44.614Z,99929.00
2023-05-22T18:15:12.376Z,99934.00
2023-05-22T18:17:40.446Z,99932.00
2023-05-22T18:20:08.561Z,99930.00
2023-05-22T18:22:39.042Z,99921.00
2023-05-22T18:25:07.616Z,99914.00
2023-05-22T18:27:35.358Z,99920.00
2023-05-22T18:30:04.334Z,99922.00
2023-05-22T18:32:31.728Z,99923.00
2023-05-22T18:34:59.258Z,99917.00
2023-05-22T18:37:27.091Z,99912.00
2023-05-22T18:39:55.159Z,99914.00
2023-05-22T18:42:22.957Z,99917.00
2023-05-22T18:44:50.360Z,99922.00
2023-05-22T18:47:17.848Z,99923.00
2023-05-22T18:49:45.152Z,99918.00
2023-05-22T18:52:12.529Z,99924.00
2023-05-22T18:54:39.887Z,99920.00
2023-05-22T18:57:07.849Z,99926.00
2023-05-22T18:59:35.248Z,99922.00
2023-05-22T19:02:02.610Z,99926.00
2023-05-22T19:04:29.947Z,99925.00
2023-05-22T19:06:58.355Z,99924.00
2023-05-22T19:09:26.094Z,99934.00
2023-05-22T19:11:53.459Z,99938.00
2023-05-22T19:14:21.484Z,99944.00
2023-05-22T19:16:48.823Z,99942.00
2023-05-22T19:19:16.207Z,99944.00
2023-05-22T19:21:43.641Z,99943.00
2023-05-22T19:24:10.964Z,99955.00
2023-05-22T19:26:38.296Z,99946.00
2023-05-22T19:29:05.682Z,99947.00
2023-05-22T19:31:34.570Z,99942.00
2023-05-22T19:34:01.948Z,99943.00
2023-05-22T19:36:29.289Z,99945.00
2023-05-22T19:38:56.631Z,99936.00
2023-05-22T19:41:24.009Z,99936.00
2023-05-22T19:43:52.108Z,99949.00
2023-05-22T19:46:19.497Z,99948.00
2023-05-22T19:48:47.574Z,99945.00
2023-05-22T19:51:15.341Z,99945.00
2023-05-22T19:53:43.399Z,99945.00
2023-05-22T19:56:10.789Z,99945.00
2023-05-22T19:58:38.138Z,99945.00
2023-05-22T20:01:05.685Z,99948.00
2023-05-22T20:03:33.157Z,99940.00
2023-05-22T20:06:01.292Z,99938.00
2023-05-22T20:08:28.655Z,99950.00
2023-05-22T20:10:56.099Z,99945.00
2023-05-22T20:13:23.468Z,99952.00
2023-05-22T20:15:52.860Z,99942.00
2023-05-22T20:18:22.171Z,99954.00
2023-05-22T20:20:49.534Z,99950.00
2023-05-22T20:23:17.632Z,99950.00
2023-05-22T20:25:44.988Z,99945.00
2023-05-22T20:28:12.295Z,99944.00
2023-05-22T20:30:39.783Z,99945.00
2023-05-22T20:33:07.400Z,99950.00
2023-05-22T20:35:34.994Z,99942.00
2023-05-22T20:38:02.699Z,99938.00
2023-05-22T20:40:32.045Z,99934.00
2023-05-22T20:43:01.715Z,99942.00
2023-05-22T20:45:29.418Z,99937.00
2023-05-22T20:47:57.158Z,99929.00
2023-05-22T20:50:24.525Z,99925.00
2023-05-22T20:52:52.133Z,99926.00
2023-05-22T20:55:19.418Z,99922.00
2023-05-22T20:57:47.369Z,99928.00
2023-05-22T21:00:15.240Z,99919.00
2023-05-22T21:02:44.312Z,99932.00
2023-05-22T21:05:12.843Z,99929.00
2023-05-22T21:07:40.305Z,99924.00
2023-05-22T21:10:09.035Z,99910.00
2023-05-22T21:12:36.482Z,99925.00
2023-05-22T21:15:05.317Z,99915.00
2023-05-22T21:17:32.666Z,99920.00
2023-05-22T21:20:00.127Z,99924.00
2023-05-22T21:22:27.417Z,99916.00
2023-05-22T21:24:55.002Z,99915.00
2023-05-22T21:27:22.351Z,99920.00
2023-05-22T21:29:49.812Z,99909.00
2023-05-22T21:32:17.898Z,99916.00
2023-05-22T21:34:46.008Z,99907.00
2023-05-22T21:37:13.306Z,99903.00
2023-05-22T21:39:40.584Z,99910.00
2023-05-22T21:42:08.463Z,99909.00
2023-05-22T21:44:36.737Z,99898.00
2023-05-22T21:47:04.259Z,99908.00
2023-05-22T21:49:32.588Z,99906.00
2023-05-22T21:51:59.904Z,99905.00
2023-05-22T21:54:28.025Z,99907.00
2023-05-22T21:56:55.360Z,99906.00
2023-05-22T21:59:22.766Z,99911.00
2023-05-22T22:01:50.205Z,99917.00
2023-05-22T22:04:17.593Z,99925.00
2023-05-22T22:06:45.565Z,99933.00
2023-05-22T22:09:12.971Z,99936.00
2023-05-22T22:11:40.389Z,99929.00
2023-05-22T22:14:07.730Z,99929.00
2023-05-22T22:16:36.246Z,99930.00
2023-05-22T22:19:04.127Z,99927.00
2023-05-22T22:21:32.678Z,99927.00
2023-05-22T22:24:00.637Z,99927.00
2023-05-22T22:26:29.934Z,99921.00
2023-05-22T22:28:57.383Z,99916.00
2023-05-22T22:31:25.602Z,99921.00
2023-05-22T22:33:52.936Z,99915.00
2023-05-22T22:36:20.566Z,99911.00
2023-05-22T22:38:47.959Z,99905.00
2023-05-22T22:41:16.040Z,99906.00
2023-05-22T22:43:43.412Z,99901.00
2023-05-22T22:46:10.788Z,99897.00
2023-05-22T22:48:41.000Z,99895.00
2023-05-22T22:51:08.794Z,99902.00
2023-05-22T22:53:37.678Z,99900.00
2023-05-22T22:56:05.278Z,99893.00
2023-05-22T22:58:33.477Z,99899.00
2023-05-22T23:01:00.966Z,99890.00
2023-05-22T23:03:28.263Z,99901.00
2023-05-22T23:05:55.621Z,99894.00
2023-05-22T23:08:22.960Z,99884.00
2023-05-22T23:10:50.325Z,99893.00
2023-05-22T23:13:17.690Z,99890.00
2023-05-22T23:15:45.940Z,99888.00
2023-05-22T23:18:13.416Z,99881.00
2023-05-22T23:20:40.741Z,99891.00
2023-05-22T23:23:08.108Z,99886.00
2023-05-22T23:25:35.524Z,99878.00
2023-05-22T23:28:02.877Z,99885.00
2023-05-22T23:30:30.238Z,99870.00
2023-05-22T23:32:58.374Z,99873.00
2023-05-22T23:35:25.726Z,99875.00
2023-05-22T23:37:53.006Z,99865.00
2023-05-22T23:40:20.315Z,99875.00
2023-05-22T23:42:47.737Z,99872.00
2023-05-22T23:45:15.073Z,99875.00
2023-05-22T23:47:42.447Z,99872.00
2023-05-22T23:50:11.247Z,99878.00
2023-05-22T23:52:38.573Z,99880.00
2023-05-22T23:55:07.201Z,99878.00
2023-05-22T23:57:34.481Z,99891.00
